Perwez, Belgium
Current Conditions -  °F | °C
As of 4:25 PM on Friday 31 Oct 2014 (Local Time) from EBBE Reporting Station
Broken Clouds Broken Clouds  
Wind Chill: 64°   Ceiling: 22000
Heat Index: 64°   Visibility: 6mi
Dew Point: 55°   Wind: 2mph
Humidity: 73%   Direction: NA
Pressure: 30.15"   Gusts: NA
Location:  50.62°N, 4.81°E
Report Text: EBBE 311525Z VRB02KT 9999 FEW100 BKN220 18/13 Q1021 BLU BLU
Loading
Personal Weather Stations






























Interactive Weather Map New forecast layout! Learn more

10-Day Weather Forecast

Advertisements
Track Severe Weather on mobile